Time;durP1;ratioP1;P1;durP2;ratioP2;P2;SDS_P1;SDS_P2;PMS_P1;PMS_P2;Temp;Humidity;BMP_temperature;BMP_pressure;BME280_temperature;BME280_humidity;BME280_pressure;Samples;Min_cycle;Max_cycle;Signal;HPM_P1;HPM_P2
2023/07/16 00:02:01;;;;;;;4.50;2.42;;;;;;;19.21;100.00;98739.09;5027932;28;20474;-73
2023/07/16 00:04:27;;;;;;;4.28;2.35;;;;;;;19.29;100.00;98717.75;5024748;28;20520;-74
2023/07/16 00:06:52;;;;;;;4.18;2.28;;;;;;;19.20;100.00;98692.72;5035216;28;20022;-74
2023/07/16 00:09:18;;;;;;;4.68;2.38;;;;;;;19.34;100.00;98720.53;5015513;28;20479;-74
2023/07/16 00:11:43;;;;;;;4.93;2.60;;;;;;;19.34;100.00;98723.28;5019590;28;20033;-73
2023/07/16 00:14:11;;;;;;;3.15;2.20;;;;;;;19.35;100.00;98733.97;5033620;28;20075;-74
2023/07/16 00:16:36;;;;;;;3.17;1.85;;;;;;;19.35;100.00;98731.22;5032075;28;20049;-74
2023/07/16 00:19:01;;;;;;;2.55;1.83;;;;;;;19.22;100.00;98720.69;5030994;28;20069;-73
2023/07/16 00:21:26;;;;;;;4.63;2.10;;;;;;;19.31;100.00;98734.75;5030623;28;20025;-73
2023/07/16 00:23:52;;;;;;;2.65;1.60;;;;;;;19.21;100.00;98722.63;5025233;28;20465;-73
2023/07/16 00:26:17;;;;;;;2.10;1.50;;;;;;;19.25;100.00;98744.88;5041200;28;20022;-74
2023/07/16 00:28:42;;;;;;;2.70;1.55;;;;;;;19.28;100.00;98752.56;5025922;28;20027;-73
2023/07/16 00:31:07;;;;;;;2.08;1.55;;;;;;;19.21;100.00;98728.13;5008784;28;20037;-73
2023/07/16 00:33:33;;;;;;;3.13;1.30;;;;;;;19.18;100.00;98736.06;5032979;28;20394;-73
2023/07/16 00:35:58;;;;;;;2.22;1.25;;;;;;;19.23;100.00;98755.25;5019641;28;20021;-73
2023/07/16 00:38:23;;;;;;;6.22;1.40;;;;;;;19.10;100.00;98717.31;5017666;28;20414;-73
2023/07/16 00:40:49;;;;;;;1.85;1.00;;;;;;;19.09;100.00;98751.31;5030959;28;20091;-74
2023/07/16 00:43:14;;;;;;;3.83;1.20;;;;;;;18.87;100.00;98738.50;5025802;28;20391;-73
2023/07/16 00:45:41;;;;;;;1.88;1.00;;;;;;;18.94;100.00;98728.16;5013595;28;20040;-74
2023/07/16 00:48:07;;;;;;;1.38;0.90;;;;;;;18.82;100.00;98741.19;5032944;28;20438;-74
2023/07/16 00:50:38;;;;;;;1.15;0.82;;;;;;;18.80;100.00;98743.34;5015595;28;20028;-73
2023/07/16 00:53:08;;;;;;;1.88;1.15;;;;;;;18.72;100.00;98735.56;5009728;28;20531;-73
2023/07/16 00:55:33;;;;;;;;;;;;;;;18.67;100.00;98743.72;5023793;28;20029;-73
2023/07/16 00:58:05;;;;;;;1.33;0.52;;;;;;;18.60;100.00;98709.16;5031352;28;19923;-73
2023/07/16 01:00:35;;;;;;;4.40;1.35;;;;;;;18.57;100.00;98720.59;5011219;28;20051;-75
2023/07/16 01:03:06;;;;;;;0.77;0.70;;;;;;;18.57;100.00;98712.38;5037962;28;20029;-73
2023/07/16 01:05:53;;;;;;;1.02;0.80;;;;;;;18.57;100.00;98693.19;5028895;28;20447;-73
2023/07/16 01:08:29;;;;;;;4.28;1.00;;;;;;;18.65;100.00;98719.31;5005469;28;20657;-73
2023/07/16 01:10:55;;;;;;;4.25;0.75;;;;;;;18.53;100.00;98704.97;5025799;28;20607;-74
2023/07/16 01:13:21;;;;;;;3.80;1.05;;;;;;;18.44;100.00;98740.19;5014190;28;20034;-73
2023/07/16 01:15:46;;;;;;;1.98;0.90;;;;;;;18.47;100.00;98778.03;5027932;28;20463;-73
2023/07/16 01:18:11;;;;;;;3.78;0.80;;;;;;;18.39;100.00;98771.09;5033681;28;20045;-74
2023/07/16 01:20:37;;;;;;;2.30;1.00;;;;;;;18.37;100.00;98766.97;5024681;28;20108;-74
2023/07/16 01:23:26;;;;;;;1.77;1.00;;;;;;;18.32;100.00;98766.91;5023632;28;20474;-74
2023/07/16 01:26:06;;;;;;;3.40;0.93;;;;;;;18.29;100.00;98772.88;5006372;28;20107;-74
2023/07/16 01:28:55;;;;;;;2.72;0.90;;;;;;;18.39;100.00;98781.22;5015891;28;20039;-74
2023/07/16 01:31:22;;;;;;;2.58;0.90;;;;;;;18.34;100.00;98786.66;5026234;28;20036;-74
2023/07/16 01:33:48;;;;;;;1.50;0.98;;;;;;;18.32;100.00;98775.13;5031793;28;20171;-75
2023/07/16 01:36:16;;;;;;;1.17;0.80;;;;;;;18.46;100.00;98797.47;5033216;28;20119;-75
2023/07/16 01:38:41;;;;;;;2.83;0.90;;;;;;;18.34;100.00;98779.25;5026398;28;20034;-75
2023/07/16 01:41:07;;;;;;;1.25;0.93;;;;;;;18.34;100.00;98787.47;5031730;28;20399;-74
2023/07/16 01:43:32;;;;;;;3.33;1.20;;;;;;;18.35;100.00;98800.06;5014817;28;20116;-75
2023/07/16 01:45:57;;;;;;;3.53;0.90;;;;;;;18.31;100.00;98807.16;5032369;28;20036;-74
2023/07/16 01:48:32;;;;;;;2.47;1.10;;;;;;;18.39;100.00;98811.34;5031817;28;20024;-74
2023/07/16 01:50:57;;;;;;;1.52;0.80;;;;;;;18.38;100.00;98823.38;5018760;28;20026;-75
2023/07/16 01:53:23;;;;;;;1.88;0.80;;;;;;;18.32;100.00;98816.19;5028700;28;20022;-74
2023/07/16 01:55:48;;;;;;;2.35;1.10;;;;;;;18.26;100.00;98798.03;5007654;28;20032;-75
2023/07/16 01:58:13;;;;;;;1.50;0.90;;;;;;;18.27;100.00;98792.31;5027750;28;20041;-75
2023/07/16 02:00:39;;;;;;;1.83;1.00;;;;;;;18.27;100.00;98788.75;5032219;28;20389;-74
2023/07/16 02:03:05;;;;;;;1.65;1.00;;;;;;;18.25;100.00;98793.63;5013387;28;20080;-75
2023/07/16 02:05:30;;;;;;;2.58;1.27;;;;;;;18.16;100.00;98788.59;5022337;28;20029;-74
2023/07/16 02:07:55;;;;;;;2.67;1.10;;;;;;;18.23;100.00;98782.09;5011824;28;20029;-74
2023/07/16 02:10:21;;;;;;;1.40;1.00;;;;;;;18.14;100.00;98800.88;5024346;28;20017;-74
2023/07/16 02:12:46;;;;;;;3.33;0.95;;;;;;;18.12;100.00;98833.97;5010160;28;20036;-74
2023/07/16 02:15:11;;;;;;;2.72;1.15;;;;;;;18.08;100.00;98829.28;5031333;28;20027;-74
2023/07/16 02:17:37;;;;;;;1.95;0.90;;;;;;;18.12;100.00;98820.28;5034471;28;20395;-75
2023/07/16 02:20:05;;;;;;;2.35;1.00;;;;;;;18.07;100.00;98814.75;5020762;28;20109;-74
2023/07/16 02:22:30;;;;;;;1.20;1.00;;;;;;;18.05;100.00;98795.03;5001345;28;20025;-75
2023/07/16 02:24:56;;;;;;;2.05;0.93;;;;;;;18.16;100.00;98809.69;5022850;28;20490;-75
2023/07/16 02:27:21;;;;;;;2.13;1.10;;;;;;;18.13;100.00;98807.44;5028266;28;20027;-75
2023/07/16 02:29:46;;;;;;;2.58;1.10;;;;;;;18.23;100.00;98804.00;5014558;28;20032;-75
2023/07/16 02:32:11;;;;;;;2.30;0.70;;;;;;;18.28;100.00;98802.16;5025393;28;20433;-75
2023/07/16 02:34:37;;;;;;;3.83;1.02;;;;;;;18.24;100.00;98794.72;5026473;28;20025;-75
2023/07/16 02:37:03;;;;;;;1.15;0.68;;;;;;;18.26;100.00;98757.78;5016290;28;20625;-75
2023/07/16 02:39:28;;;;;;;3.20;0.63;;;;;;;18.39;100.00;98765.63;5031926;28;20022;-75
2023/07/16 02:41:53;;;;;;;3.53;0.60;;;;;;;18.33;100.00;98761.16;5027240;28;20029;-73
2023/07/16 02:44:18;;;;;;;4.10;1.00;;;;;;;18.30;100.00;98777.28;5022692;28;20029;-73
2023/07/16 02:46:44;;;;;;;1.30;0.70;;;;;;;18.37;100.00;98761.47;5013473;28;20017;-73
2023/07/16 02:49:09;;;;;;;2.78;0.70;;;;;;;18.43;100.00;98771.41;5020374;28;20371;-73
2023/07/16 02:51:35;;;;;;;2.83;0.98;;;;;;;18.43;100.00;98770.59;5031661;28;20064;-73
2023/07/16 02:54:00;;;;;;;2.72;0.95;;;;;;;18.49;100.00;98780.50;5029473;28;20395;-73
2023/07/16 02:56:25;;;;;;;3.13;0.98;;;;;;;18.49;100.00;98781.34;5030012;28;20582;-74
2023/07/16 02:58:50;;;;;;;4.70;0.90;;;;;;;18.49;100.00;98770.38;5030999;28;20029;-74
2023/07/16 03:01:16;;;;;;;1.92;0.90;;;;;;;18.53;100.00;98760.56;5025982;28;20025;-74
2023/07/16 03:03:41;;;;;;;1.30;0.80;;;;;;;18.48;100.00;98752.28;5021472;28;20083;-75
2023/07/16 03:06:07;;;;;;;3.22;0.80;;;;;;;18.37;100.00;98736.84;5026387;28;20463;-75
2023/07/16 03:08:33;;;;;;;2.60;0.90;;;;;;;18.29;100.00;98726.31;5031100;28;20048;-74
2023/07/16 03:10:59;;;;;;;1.83;0.80;;;;;;;18.26;100.00;98741.38;5024330;28;20026;-74
2023/07/16 03:13:24;;;;;;;1.58;0.70;;;;;;;18.22;100.00;98715.56;5030564;28;20085;-74
2023/07/16 03:15:49;;;;;;;1.35;0.77;;;;;;;18.17;100.00;98704.53;5035413;28;20034;-74
2023/07/16 03:18:17;;;;;;;3.42;0.98;;;;;;;18.17;100.00;98720.97;5044138;28;20026;-74
2023/07/16 03:20:42;;;;;;;2.30;1.00;;;;;;;18.06;100.00;98717.28;5031980;28;20025;-74
2023/07/16 03:23:08;;;;;;;2.63;0.80;;;;;;;18.23;100.00;98761.00;5029251;28;20048;-74
2023/07/16 03:25:33;;;;;;;6.47;0.80;;;;;;;17.97;100.00;98740.69;5007473;28;20057;-75
2023/07/16 03:27:58;;;;;;;3.05;0.80;;;;;;;17.93;100.00;98739.53;5010969;28;20029;-74
2023/07/16 03:30:24;;;;;;;1.98;0.70;;;;;;;18.08;100.00;98761.66;5028722;28;20025;-74
2023/07/16 03:32:49;;;;;;;2.75;0.90;;;;;;;18.03;100.00;98753.38;5014690;28;20033;-74
2023/07/16 03:35:14;;;;;;;5.00;1.00;;;;;;;17.95;100.00;98757.38;5026239;28;20212;-75
2023/07/16 03:37:39;;;;;;;3.25;1.02;;;;;;;18.02;100.00;98781.00;5015078;28;20029;-75
2023/07/16 03:40:16;;;;;;;2.90;0.93;;;;;;;18.04;100.00;98787.06;5009464;28;20164;-75
2023/07/16 03:42:42;;;;;;;2.97;0.90;;;;;;;17.92;100.00;98788.00;5031298;28;20076;-75
2023/07/16 03:45:08;;;;;;;2.67;0.93;;;;;;;17.82;100.00;98770.59;5008046;28;20014;-74
2023/07/16 03:47:33;;;;;;;3.20;1.45;;;;;;;17.87;100.00;98792.56;5035397;28;20117;-74
2023/07/16 03:49:59;;;;;;;6.80;0.90;;;;;;;17.82;100.00;98795.22;5034245;28;20470;-74
2023/07/16 03:52:24;;;;;;;4.85;1.08;;;;;;;17.82;100.00;98793.31;5033326;28;20597;-75
2023/07/16 03:54:50;;;;;;;4.22;1.10;;;;;;;17.73;100.00;98787.38;5015454;28;20021;-75
2023/07/16 03:57:16;;;;;;;2.97;1.17;;;;;;;17.90;100.00;98801.09;5015463;28;20387;-75
2023/07/16 03:59:42;;;;;;;4.72;1.00;;;;;;;17.98;100.00;98820.91;5017055;28;20028;-75
2023/07/16 04:02:07;;;;;;;6.80;1.30;;;;;;;17.89;100.00;98798.59;5034718;28;20486;-75
2023/07/16 04:04:32;;;;;;;1.73;1.00;;;;;;;18.00;100.00;98816.00;5026762;28;20084;-74
2023/07/16 04:06:58;;;;;;;3.30;1.02;;;;;;;17.97;100.00;98831.00;5038799;28;20112;-74
2023/07/16 04:09:23;;;;;;;3.85;1.08;;;;;;;17.98;100.00;98849.13;5034777;28;20064;-74
2023/07/16 04:11:48;;;;;;;3.10;1.25;;;;;;;17.97;100.00;98855.66;5012927;28;20032;-75
2023/07/16 04:14:14;;;;;;;6.57;1.17;;;;;;;17.86;100.00;98848.38;5034515;28;20029;-74
2023/07/16 04:16:39;;;;;;;4.90;1.02;;;;;;;17.89;100.00;98859.66;5016326;28;20462;-75
2023/07/16 04:19:05;;;;;;;3.55;1.30;;;;;;;17.84;100.00;98845.91;5020617;28;20025;-75
2023/07/16 04:21:30;;;;;;;2.25;1.10;;;;;;;17.86;100.00;98843.72;5009613;28;20029;-75
2023/07/16 04:23:55;;;;;;;5.53;1.10;;;;;;;17.96;100.00;98860.31;5013508;28;20029;-74
2023/07/16 04:26:20;;;;;;;1.58;0.80;;;;;;;17.98;100.00;98854.59;5022210;28;20025;-70
2023/07/16 04:28:46;;;;;;;5.03;0.82;;;;;;;18.04;100.00;98855.50;5037819;28;20402;-70
2023/07/16 04:31:11;;;;;;;3.15;1.00;;;;;;;18.05;100.00;98858.00;5024045;28;20116;-70
2023/07/16 04:33:36;;;;;;;3.55;0.90;;;;;;;18.05;100.00;98846.19;5022749;28;20029;-70
2023/07/16 04:36:02;;;;;;;4.85;0.93;;;;;;;18.09;100.00;98823.53;5026051;28;20119;-77
2023/07/16 04:38:27;;;;;;;5.95;0.93;;;;;;;18.07;100.00;98835.81;5004573;28;20017;-75
2023/07/16 04:40:52;;;;;;;4.25;1.20;;;;;;;18.10;100.00;98840.78;5032456;28;20360;-73
2023/07/16 04:43:17;;;;;;;2.85;1.00;;;;;;;18.01;100.00;98836.84;5010985;28;20117;-77
2023/07/16 04:45:46;;;;;;;3.42;1.13;;;;;;;18.04;100.00;98842.63;5026631;28;20478;-70
2023/07/16 04:48:12;;;;;;;4.28;1.20;;;;;;;17.97;100.00;98831.00;5032944;28;20112;-78
2023/07/16 04:50:38;;;;;;;1.83;0.90;;;;;;;17.91;100.00;98835.59;5034205;28;20025;-77
2023/07/16 04:53:03;;;;;;;3.78;0.90;;;;;;;18.00;100.00;98844.22;5029966;28;20022;-79
2023/07/16 04:55:29;;;;;;;4.50;1.40;;;;;;;18.02;100.00;98863.94;5038813;28;20035;-75
2023/07/16 04:57:54;;;;;;;3.72;1.17;;;;;;;17.94;100.00;98840.56;5034695;28;20029;-78
2023/07/16 05:00:20;;;;;;;3.38;1.05;;;;;;;17.89;100.00;98848.72;5001128;28;20403;-79
2023/07/16 05:02:45;;;;;;;5.05;1.35;;;;;;;18.07;100.00;98869.50;4998418;28;20090;-79
2023/07/16 05:05:10;;;;;;;3.20;0.95;;;;;;;18.22;100.00;98865.34;5033090;28;20041;-79
2023/07/16 05:07:36;;;;;;;4.35;1.23;;;;;;;18.37;100.00;98877.34;5026075;28;20033;-79
2023/07/16 05:10:01;;;;;;;4.35;1.10;;;;;;;18.27;100.00;98854.47;5038217;28;20495;-79
2023/07/16 05:12:26;;;;;;;2.33;1.00;;;;;;;18.25;100.00;98834.72;5021024;28;20025;-79
2023/07/16 05:14:52;;;;;;;3.78;1.98;;;;;;;18.21;100.00;98845.34;5037500;28;20025;-80
2023/07/16 05:17:17;;;;;;;6.45;1.30;;;;;;;18.30;100.00;98873.13;5026461;28;20092;-78
2023/07/16 05:19:42;;;;;;;2.85;0.90;;;;;;;18.11;100.00;98826.88;5016659;28;20459;-78
2023/07/16 05:22:08;;;;;;;3.22;1.10;;;;;;;18.26;100.00;98870.06;5007947;28;20025;-75
2023/07/16 05:24:33;;;;;;;3.83;1.27;;;;;;;18.45;100.00;98884.31;5017845;28;20104;-72
2023/07/16 05:26:59;;;;;;;7.90;1.25;;;;;;;18.52;100.00;98878.63;5030203;28;20105;-72
2023/07/16 05:29:24;;;;;;;4.05;1.20;;;;;;;18.58;100.00;98888.59;5027857;28;20017;-71
2023/07/16 05:31:49;;;;;;;6.85;1.10;;;;;;;18.66;100.00;98887.34;5013139;28;20049;-73
2023/07/16 05:34:15;;;;;;;6.75;1.10;;;;;;;18.71;100.00;98880.00;5025981;28;20044;-80
2023/07/16 05:36:42;;;;;;;6.75;1.60;;;;;;;18.93;100.00;98880.00;5014695;28;20072;-70
2023/07/16 05:39:08;;;;;;;6.75;1.20;;;;;;;18.87;100.00;98870.09;5032792;28;20487;-77
2023/07/16 05:41:33;;;;;;;7.90;1.58;;;;;;;18.93;100.00;98879.19;5011569;28;20034;-77
2023/07/16 05:43:59;;;;;;;4.70;1.10;;;;;;;18.95;100.00;98866.88;5004703;28;20525;-78
2023/07/16 05:46:24;;;;;;;8.20;1.00;;;;;;;19.03;100.00;98869.16;5013411;28;20021;-78
2023/07/16 05:48:49;;;;;;;6.25;1.15;;;;;;;19.27;100.00;98883.41;5027393;28;20505;-78
2023/07/16 05:51:15;;;;;;;5.28;1.33;;;;;;;19.17;100.00;98863.28;5030822;28;20029;-75
2023/07/16 05:53:40;;;;;;;5.03;1.00;;;;;;;19.41;100.00;98875.63;5028002;22;20518;-76
2023/07/16 05:56:05;;;;;;;8.40;1.50;;;;;;;19.55;100.00;98891.66;5024416;28;20025;-75
2023/07/16 05:58:30;;;;;;;7.20;1.20;;;;;;;19.88;100.00;98887.84;5017438;28;20022;-74
2023/07/16 06:00:56;;;;;;;3.45;1.00;;;;;;;20.40;100.00;98878.06;5020736;28;20471;-72
2023/07/16 06:03:21;;;;;;;6.65;1.20;;;;;;;20.62;100.00;98881.53;5025493;28;20070;-76
2023/07/16 06:05:46;;;;;;;6.63;1.30;;;;;;;20.66;100.00;98885.38;5045818;28;20479;-76
2023/07/16 06:08:12;;;;;;;2.45;0.95;;;;;;;20.84;100.00;98891.53;5018486;28;20030;-76
2023/07/16 06:10:38;;;;;;;5.30;1.13;;;;;;;20.75;100.00;98892.03;5043741;28;20017;-78
2023/07/16 06:13:04;;;;;;;6.32;1.20;;;;;;;20.77;100.00;98884.31;5046498;28;20029;-75
2023/07/16 06:15:29;;;;;;;6.88;1.23;;;;;;;20.77;100.00;98876.06;5046047;28;20030;-75
2023/07/16 06:17:54;;;;;;;8.32;1.55;;;;;;;20.61;100.00;98870.78;5045036;28;20041;-74
2023/07/16 06:20:19;;;;;;;6.47;1.45;;;;;;;20.76;100.00;98863.44;5058859;28;20025;-77
2023/07/16 06:22:45;;;;;;;4.85;1.17;;;;;;;21.03;100.00;98878.94;5044777;28;20025;-75
2023/07/16 06:25:10;;;;;;;6.93;1.08;;;;;;;20.41;100.00;98888.78;5033665;28;20033;-76
2023/07/16 06:27:36;;;;;;;7.82;1.00;;;;;;;20.49;100.00;98887.47;5026503;28;20029;-76
2023/07/16 06:30:01;;;;;;;8.75;1.30;;;;;;;20.34;100.00;98893.69;5032712;28;20490;-78
2023/07/16 06:32:27;;;;;;;5.72;1.25;;;;;;;20.04;100.00;98883.31;5033096;28;20037;-77
2023/07/16 06:34:52;;;;;;;5.65;0.93;;;;;;;20.12;100.00;98910.28;5025462;28;20025;-75
2023/07/16 06:37:17;;;;;;;6.13;1.15;;;;;;;20.16;100.00;98902.34;5033847;28;20534;-75
2023/07/16 06:39:42;;;;;;;2.70;0.75;;;;;;;20.07;100.00;98904.78;5030181;28;20029;-75
2023/07/16 06:42:08;;;;;;;5.63;1.02;;;;;;;20.41;100.00;98897.03;5034010;28;20464;-74
2023/07/16 06:44:33;;;;;;;7.05;1.17;;;;;;;20.67;100.00;98887.06;5023736;28;20027;-75
2023/07/16 06:46:58;;;;;;;4.47;1.05;;;;;;;20.82;100.00;98896.44;5046307;28;20013;-76
2023/07/16 06:49:24;;;;;;;3.33;1.13;;;;;;;21.09;100.00;98899.88;5046972;28;20025;-79
2023/07/16 06:51:49;;;;;;;2.40;0.80;;;;;;;21.43;100.00;98891.16;5041059;28;20026;-79
2023/07/16 06:54:15;;;;;;;4.05;0.93;;;;;;;22.17;100.00;98891.78;5043267;28;20040;-76
2023/07/16 06:56:40;;;;;;;5.07;1.00;;;;;;;21.58;100.00;98885.69;5042117;28;20080;-77
2023/07/16 06:59:06;;;;;;;8.23;1.10;;;;;;;21.84;100.00;98880.22;5065905;28;20463;-76
2023/07/16 07:01:32;;;;;;;6.32;1.25;;;;;;;22.16;100.00;98876.31;5038485;28;20026;-77
2023/07/16 07:03:57;;;;;;;9.40;1.63;;;;;;;22.61;100.00;98872.69;5039474;28;20166;-77
2023/07/16 07:06:22;;;;;;;5.43;1.10;;;;;;;22.99;100.00;98878.63;5041827;28;20518;-77
2023/07/16 07:08:47;;;;;;;4.00;1.05;;;;;;;23.13;100.00;98868.66;5043568;28;20031;-76
2023/07/16 07:11:13;;;;;;;2.95;1.10;;;;;;;27.08;100.00;98886.53;5064033;28;20037;-76
2023/07/16 07:13:50;;;;;;;5.40;1.30;;;;;;;25.57;100.00;98874.78;5052776;28;20016;-80
2023/07/16 07:16:16;;;;;;;5.90;1.00;;;;;;;24.22;100.00;98881.38;5051527;28;20101;-79
2023/07/16 07:18:42;;;;;;;5.82;1.30;;;;;;;23.79;100.00;98897.78;5040342;28;20038;-79
2023/07/16 07:21:09;;;;;;;7.40;1.33;;;;;;;22.93;100.00;98901.81;5034656;28;20653;-78
2023/07/16 07:23:34;;;;;;;5.05;1.00;;;;;;;22.81;100.00;98893.03;5031167;28;20041;-77
2023/07/16 07:25:59;;;;;;;2.40;1.00;;;;;;;25.98;100.00;98888.00;5028807;28;20095;-79
2023/07/16 07:28:25;;;;;;;4.65;1.33;;;;;;;27.96;nan;98880.69;5031993;28;20091;-78
2023/07/16 07:30:50;;;;;;;4.82;1.08;;;;;;;30.53;71.42;98869.91;5030988;28;20025;-79
2023/07/16 07:33:16;;;;;;;5.85;1.00;;;;;;;33.05;59.75;98894.19;5030374;28;20391;-78
2023/07/16 07:35:41;;;;;;;3.08;1.10;;;;;;;33.89;53.31;98888.78;5032244;28;20048;-79
2023/07/16 07:38:06;;;;;;;3.55;0.93;;;;;;;34.92;50.46;98878.72;5026641;28;20049;-80
2023/07/16 07:40:32;;;;;;;3.40;1.02;;;;;;;35.75;46.92;98887.09;5032560;28;20021;-81
2023/07/16 07:42:57;;;;;;;5.85;1.10;;;;;;;35.52;46.78;98889.78;5034788;28;20025;-80
2023/07/16 07:45:23;;;;;;;2.90;0.90;;;;;;;32.79;51.25;98900.13;5046216;28;20116;-80
2023/07/16 07:47:49;;;;;;;3.63;0.85;;;;;;;32.11;50.09;98892.13;5033784;28;20382;-82
2023/07/16 07:50:14;;;;;;;3.55;0.85;;;;;;;30.88;53.92;98885.72;5031104;28;20026;-81
2023/07/16 07:52:40;;;;;;;4.95;1.00;;;;;;;29.15;61.91;98910.59;5047255;28;20109;-79
2023/07/16 07:55:06;;;;;;;3.50;0.90;;;;;;;27.81;69.49;98911.63;5028394;28;20445;-82
2023/07/16 07:57:32;;;;;;;3.35;0.95;;;;;;;27.01;73.90;98900.84;5029961;28;20104;-81
2023/07/16 07:59:57;;;;;;;2.72;0.77;;;;;;;29.66;63.32;98895.16;5033356;28;20112;-79
2023/07/16 08:02:24;;;;;;;2.28;0.93;;;;;;;30.32;61.83;98902.50;5034175;28;20028;-81
2023/07/16 08:04:55;;;;;;;2.55;1.05;;;;;;;32.03;59.40;98910.63;5029346;28;20072;-77
2023/07/16 08:07:22;;;;;;;5.57;1.08;;;;;;;32.42;51.26;98895.22;5018157;28;20104;-77
2023/07/16 08:09:47;;;;;;;6.95;1.08;;;;;;;33.73;49.77;98910.38;5040685;28;20025;-76
2023/07/16 08:12:14;;;;;;;4.88;1.35;;;;;;;34.28;47.11;98905.94;5027733;28;20037;-77
2023/07/16 08:14:41;;;;;;;4.63;1.05;;;;;;;31.66;49.52;98910.41;5025035;28;20446;-76
2023/07/16 08:17:07;;;;;;;5.93;0.93;;;;;;;29.70;54.68;98912.03;5022788;28;20026;-78
2023/07/16 08:19:32;;;;;;;2.70;0.95;;;;;;;28.90;58.43;98919.66;5032770;28;20025;-77
2023/07/16 08:21:57;;;;;;;6.05;1.17;;;;;;;28.60;61.66;98917.41;5034769;28;20513;-78
2023/07/16 08:24:24;;;;;;;4.97;0.93;;;;;;;29.36;59.73;98910.00;5037673;28;20137;-77
2023/07/16 08:26:49;;;;;;;4.13;0.95;;;;;;;29.49;56.96;98906.25;5046186;28;20347;-78
2023/07/16 08:29:14;;;;;;;2.83;0.80;;;;;;;30.84;52.78;98910.72;5036075;28;20489;-77
2023/07/16 08:31:40;;;;;;;2.53;1.10;;;;;;;31.33;53.99;98904.69;5032810;28;20283;-76
2023/07/16 08:34:05;;;;;;;3.50;0.90;;;;;;;28.88;56.74;98913.63;5030270;28;20041;-78
2023/07/16 08:36:33;;;;;;;5.47;1.15;;;;;;;27.59;61.42;98907.66;5030834;28;20029;-77
2023/07/16 08:38:58;;;;;;;5.45;1.00;;;;;;;29.08;61.99;98920.56;5032813;28;20049;-77
2023/07/16 08:41:24;;;;;;;4.60;1.10;;;;;;;31.25;55.56;98894.38;5030668;28;20013;-78
2023/07/16 08:43:50;;;;;;;6.25;1.40;;;;;;;35.98;46.56;98884.38;5030713;28;20045;-78
2023/07/16 08:46:16;;;;;;;4.72;1.10;;;;;;;37.78;41.35;98888.22;5032869;28;20413;-77
2023/07/16 08:48:42;;;;;;;3.42;1.00;;;;;;;35.97;42.34;98892.00;5035594;28;20506;-78
2023/07/16 08:51:10;;;;;;;3.10;1.00;;;;;;;31.77;46.37;98908.03;5030156;28;20088;-78
2023/07/16 08:53:35;;;;;;;3.15;0.98;;;;;;;31.87;49.64;98902.81;5036051;28;20060;-78
2023/07/16 08:56:02;;;;;;;6.55;0.95;;;;;;;30.47;52.22;98909.50;5052722;28;20490;-77
2023/07/16 08:58:29;;;;;;;3.72;1.17;;;;;;;29.51;55.93;98897.56;5034627;28;20037;-77
2023/07/16 09:00:56;;;;;;;5.97;0.90;;;;;;;28.34;58.82;98899.72;5035599;28;20025;-77
2023/07/16 09:03:21;;;;;;;3.25;0.95;;;;;;;27.18;62.11;98902.19;5027033;28;20141;-77
2023/07/16 09:05:47;;;;;;;2.88;1.00;;;;;;;26.82;68.48;98905.66;5036174;28;20421;-78
2023/07/16 09:08:13;;;;;;;6.78;1.15;;;;;;;26.69;66.70;98912.84;5036744;28;20037;-78
2023/07/16 09:10:42;;;;;;;4.30;1.10;;;;;;;26.97;66.32;98916.47;5025539;28;20506;-75
2023/07/16 09:13:07;;;;;;;3.25;1.00;;;;;;;26.17;72.22;98912.94;5035317;28;20395;-77
2023/07/16 09:15:34;;;;;;;4.35;0.95;;;;;;;26.73;68.36;98930.56;5033342;28;20026;-76
2023/07/16 09:17:59;;;;;;;3.85;0.88;;;;;;;27.07;66.81;98930.16;5050424;28;20406;-76
2023/07/16 09:20:25;;;;;;;3.88;0.90;;;;;;;28.78;66.26;98914.72;5036341;28;20022;-78
2023/07/16 09:22:57;;;;;;;4.00;1.10;;;;;;;31.02;55.42;98917.03;5035548;28;20072;-77
2023/07/16 09:25:29;;;;;;;4.53;1.10;;;;;;;33.04;52.43;98914.97;5034436;28;20029;-77
2023/07/16 09:28:00;;;;;;;3.15;0.90;;;;;;;31.00;53.68;98920.19;5034215;28;20047;-78
2023/07/16 09:30:31;;;;;;;3.25;0.90;;;;;;;31.22;54.04;98909.84;5030218;28;20538;-77
2023/07/16 09:32:56;;;;;;;6.03;1.27;;;;;;;29.55;55.90;98926.41;5035336;28;20463;-78
2023/07/16 09:35:22;;;;;;;2.92;1.10;;;;;;;30.00;56.39;98915.81;5036417;28;20029;-77
2023/07/16 09:37:47;;;;;;;3.05;1.20;;;;;;;32.32;51.96;98906.88;5035053;28;20029;-78
2023/07/16 09:40:13;;;;;;;3.10;1.08;;;;;;;33.38;48.17;98908.88;5034312;28;20036;-79
2023/07/16 09:42:43;;;;;;;4.82;1.10;;;;;;;33.72;47.06;98912.34;5036213;28;20022;-78
2023/07/16 09:45:18;;;;;;;2.83;1.10;;;;;;;32.39;49.39;98909.94;5031722;28;20021;-75
2023/07/16 09:47:44;;;;;;;4.35;0.90;;;;;;;31.20;50.05;98907.41;5031776;28;20053;-77
2023/07/16 09:50:11;;;;;;;4.80;1.25;;;;;;;29.59;53.37;98921.84;5040599;28;20048;-79
2023/07/16 09:52:37;;;;;;;3.67;0.88;;;;;;;32.72;49.23;98906.28;5061932;28;20490;-77
2023/07/16 09:55:03;;;;;;;7.13;1.33;;;;;;;33.79;46.07;98900.50;5031327;28;20045;-77
2023/07/16 09:57:35;;;;;;;3.60;1.20;;;;;;;32.62;47.67;98906.72;5040596;28;20509;-78
2023/07/16 10:00:04;;;;;;;4.55;0.90;;;;;;;31.73;50.52;98895.88;5039661;28;20535;-76
2023/07/16 10:02:33;;;;;;;3.33;0.85;;;;;;;32.19;48.62;98906.00;5034494;28;20025;-79
2023/07/16 10:04:59;;;;;;;5.57;1.00;;;;;;;32.68;49.02;98908.16;5031453;28;20042;-75
2023/07/16 10:07:26;;;;;;;5.18;1.10;;;;;;;32.70;48.85;98903.84;5037118;28;20076;-78
2023/07/16 10:09:56;;;;;;;2.28;0.93;;;;;;;33.22;48.07;98891.13;5031065;28;20095;-78
2023/07/16 10:12:26;;;;;;;2.47;0.88;;;;;;;33.79;46.64;98909.75;5022361;28;20025;-79
2023/07/16 10:15:01;;;;;;;2.28;0.70;;;;;;;36.20;43.77;98897.69;5030930;28;20088;-78
2023/07/16 10:17:26;;;;;;;2.25;0.70;;;;;;;37.66;40.30;98906.25;5027818;28;20095;-77
2023/07/16 10:19:52;;;;;;;5.40;1.27;;;;;;;38.36;37.72;98910.34;5033201;28;20856;-79
2023/07/16 10:22:19;;;;;;;2.63;1.00;;;;;;;39.49;36.86;98888.34;5033185;28;20029;-77
2023/07/16 10:24:51;;;;;;;2.22;0.82;;;;;;;37.41;37.28;98898.19;5029017;28;20052;-78
2023/07/16 10:27:26;;;;;;;5.47;1.17;;;;;;;39.09;36.82;98899.34;5031569;28;20544;-77
2023/07/16 10:29:54;;;;;;;4.00;0.95;;;;;;;39.51;36.16;98911.38;5034938;28;20124;-77
2023/07/16 10:32:21;;;;;;;5.82;1.20;;;;;;;40.04;35.38;98910.88;5036975;28;20028;-79
2023/07/16 10:34:46;;;;;;;2.35;0.80;;;;;;;40.83;33.96;98894.06;5028101;28;20025;-78
2023/07/16 10:37:12;;;;;;;3.10;0.87;;;;;;;41.50;33.69;98896.03;5028471;28;20449;-77
2023/07/16 10:39:46;;;;;;;6.57;1.37;;;;;;;39.43;34.66;98908.53;5046531;28;20302;-77
2023/07/16 10:42:13;;;;;;;1.77;0.90;;;;;;;40.08;33.88;98886.16;5026836;28;20737;-83
2023/07/16 10:44:39;;;;;;;3.13;0.90;;;;;;;41.73;34.14;98886.25;5023306;28;20064;-85
2023/07/16 10:47:06;;;;;;;2.35;1.00;;;;;;;43.86;30.86;98876.50;5044777;28;20045;-79
2023/07/16 10:49:31;;;;;;;2.25;0.95;;;;;;;43.11;30.40;98878.09;5032994;28;20087;-82
2023/07/16 10:52:00;;;;;;;2.80;1.00;;;;;;;43.15;30.82;98878.03;5041655;28;20033;-81
2023/07/16 10:54:25;;;;;;;4.18;0.77;;;;;;;42.27;31.66;98875.44;5043683;28;20421;-82
2023/07/16 10:56:51;;;;;;;3.08;0.98;;;;;;;40.11;33.67;98874.03;5024590;28;20419;-83
2023/07/16 10:59:17;;;;;;;3.33;0.80;;;;;;;38.08;36.25;98872.09;5025831;28;20033;-82
2023/07/16 11:01:43;;;;;;;2.30;0.90;;;;;;;38.63;35.50;98879.13;5027616;28;20031;-80
2023/07/16 11:04:08;;;;;;;4.07;0.98;;;;;;;39.55;34.13;98864.88;5047077;28;20620;-84
2023/07/16 11:06:35;;;;;;;2.70;0.88;;;;;;;40.40;32.81;98868.44;5042475;28;20026;-82
2023/07/16 11:09:09;;;;;;;3.15;0.90;;;;;;;42.37;31.62;98865.25;5046866;28;20052;-84
2023/07/16 11:11:35;;;;;;;2.67;0.98;;;;;;;39.10;32.54;98852.06;5038616;28;20026;-82
2023/07/16 11:14:04;;;;;;;2.90;1.00;;;;;;;40.50;33.38;98867.66;5030122;28;20029;-79
2023/07/16 11:16:34;;;;;;;2.30;1.10;;;;;;;40.54;32.68;98865.66;5020865;28;20292;-80
2023/07/16 11:19:02;;;;;;;3.00;0.70;;;;;;;42.38;32.15;98852.66;5031359;28;20032;-77
2023/07/16 11:21:27;;;;;;;3.78;0.98;;;;;;;38.80;32.88;98853.84;5024785;28;20053;-77
2023/07/16 11:23:52;;;;;;;4.87;1.00;;;;;;;37.24;36.93;98860.06;5041895;28;20046;-79
2023/07/16 11:26:18;;;;;;;1.60;0.80;;;;;;;35.57;37.85;98867.00;5025356;28;20367;-79